Time;durP1;ratioP1;P1;durP2;ratioP2;P2;SDS_P1;SDS_P2;PMS_P1;PMS_P2;Temp;Humidity;BMP_temperature;BMP_pressure;BME280_temperature;BME280_humidity;BME280_pressure;Samples;Min_cycle;Max_cycle;Signal;HPM_P1;HPM_P2
2021/11/28 00:01:22;;;;;;;17.73;11.77;;;;;;;2.78;100.00;99301.88;10095434;28;20514;-71
2021/11/28 00:06:25;;;;;;;18.90;11.40;;;;;;;2.74;100.00;99290.88;10101266;28;20051;-69
2021/11/28 00:16:39;;;;;;;20.33;14.02;;;;;;;2.65;100.00;99298.06;10077437;28;20101;-70
2021/11/28 00:21:36;;;;;;;17.92;11.88;;;;;;;2.48;100.00;99287.06;10082131;28;20051;-69
2021/11/28 00:26:33;;;;;;;18.73;13.10;;;;;;;2.53;100.00;99290.47;10093997;28;20054;-72
2021/11/28 00:31:30;;;;;;;19.02;13.50;;;;;;;2.46;100.00;99291.97;10101237;28;20042;-70
2021/11/28 00:36:26;;;;;;;17.63;11.98;;;;;;;2.55;100.00;99294.75;10108004;28;20050;-72
2021/11/28 00:41:23;;;;;;;16.35;11.55;;;;;;;2.41;100.00;99294.75;10102205;28;20101;-71
2021/11/28 00:46:19;;;;;;;14.13;9.32;;;;;;;2.36;100.00;99294.84;10104515;28;20043;-72
2021/11/28 00:56:17;;;;;;;15.73;11.27;;;;;;;2.42;100.00;99293.66;10105982;28;22116;-71
2021/11/28 01:01:14;;;;;;;17.55;11.60;;;;;;;2.35;100.00;99294.06;10093429;28;20065;-72
2021/11/28 01:06:11;;;;;;;15.20;10.90;;;;;;;2.40;100.00;99306.66;10095189;28;20519;-73
2021/11/28 01:11:08;;;;;;;15.00;10.20;;;;;;;2.45;100.00;99309.25;10088996;28;20098;-69
2021/11/28 01:16:04;;;;;;;14.02;9.65;;;;;;;2.43;100.00;99311.44;10101968;28;20089;-69
2021/11/28 01:21:02;;;;;;;14.15;9.85;;;;;;;2.44;100.00;99313.06;10111717;28;20087;-70
2021/11/28 01:25:58;;;;;;;13.02;8.48;;;;;;;2.50;100.00;99317.25;10090427;28;20558;-73
2021/11/28 01:30:56;;;;;;;16.17;10.70;;;;;;;2.46;100.00;99316.22;10089081;28;20869;-73
2021/11/28 01:35:53;;;;;;;13.32;8.95;;;;;;;2.50;100.00;99322.66;10087146;28;20082;-70
2021/11/28 01:40:52;;;;;;;14.02;9.10;;;;;;;2.48;100.00;99331.06;10089682;28;20062;-73
2021/11/28 01:45:51;;;;;;;12.02;8.13;;;;;;;2.43;100.00;99322.25;10088782;28;20063;-72
2021/11/28 01:50:50;;;;;;;11.43;8.18;;;;;;;2.40;100.00;99329.03;10094629;28;20069;-71
2021/11/28 01:55:47;;;;;;;11.65;8.00;;;;;;;2.46;100.00;99332.41;10098283;28;20059;-72
2021/11/28 02:00:49;;;;;;;14.13;9.63;;;;;;;2.39;100.00;99337.41;10103015;28;20078;-72
2021/11/28 02:05:50;;;;;;;14.57;10.47;;;;;;;2.35;100.00;99331.81;10095900;28;20125;-72
2021/11/28 02:10:46;;;;;;;16.88;11.10;;;;;;;2.34;100.00;99319.41;10104394;28;20110;-71
2021/11/28 02:15:43;;;;;;;17.17;11.35;;;;;;;2.33;100.00;99330.53;10102274;28;20043;-71
2021/11/28 02:20:45;;;;;;;15.13;10.43;;;;;;;2.36;100.00;99316.44;10104673;28;20080;-71
2021/11/28 02:25:42;;;;;;;16.77;11.10;;;;;;;2.37;100.00;99309.94;10093311;28;20051;-69
2021/11/28 02:30:39;;;;;;;14.13;10.23;;;;;;;2.29;100.00;99317.59;10108979;28;20051;-67
2021/11/28 02:35:36;;;;;;;13.95;8.98;;;;;;;2.30;100.00;99318.44;10100339;28;20042;-71
2021/11/28 02:40:34;;;;;;;17.10;10.63;;;;;;;2.32;100.00;99310.81;10098404;28;20686;-72
2021/11/28 02:45:32;;;;;;;15.35;10.13;;;;;;;2.31;100.00;99312.72;10095295;28;20101;-69
2021/11/28 02:50:29;;;;;;;14.18;10.10;;;;;;;2.39;100.00;99315.81;10097657;28;20452;-72
2021/11/28 02:55:29;;;;;;;13.98;9.88;;;;;;;2.48;100.00;99320.25;10095389;28;20055;-70
2021/11/28 03:00:29;;;;;;;13.93;9.55;;;;;;;2.41;100.00;99321.72;10094375;28;20117;-72
2021/11/28 03:05:26;;;;;;;14.35;9.30;;;;;;;2.45;100.00;99325.44;10102975;28;20458;-70
2021/11/28 03:10:43;;;;;;;13.82;9.57;;;;;;;2.50;100.00;99325.34;10098070;28;20043;-72
2021/11/28 03:15:40;;;;;;;16.15;10.63;;;;;;;2.47;100.00;99325.94;10100417;28;20073;-72
2021/11/28 03:20:36;;;;;;;19.40;12.02;;;;;;;2.41;100.00;99327.13;10104391;28;20430;-72
2021/11/28 03:25:33;;;;;;;20.65;12.63;;;;;;;2.46;100.00;99324.31;10099396;28;20062;-72
2021/11/28 03:30:29;;;;;;;23.80;13.68;;;;;;;2.36;100.00;99321.81;10100135;28;20106;-70
2021/11/28 03:35:26;;;;;;;24.00;13.65;;;;;;;2.42;100.00;99320.66;10114094;28;20150;-71
2021/11/28 03:40:22;;;;;;;26.98;15.50;;;;;;;2.45;100.00;99320.84;10098703;28;20400;-72
2021/11/28 03:45:19;;;;;;;22.23;13.77;;;;;;;2.42;100.00;99328.75;10094054;28;20562;-73
2021/11/28 03:50:16;;;;;;;24.77;14.45;;;;;;;2.31;100.00;99315.41;10095889;28;20082;-74
2021/11/28 03:55:14;;;;;;;21.38;12.35;;;;;;;2.46;100.00;99327.03;10097389;28;20487;-70
2021/11/28 04:00:12;;;;;;;21.65;13.10;;;;;;;2.37;100.00;99331.50;10092842;28;20074;-70
2021/11/28 04:05:10;;;;;;;24.33;14.00;;;;;;;2.28;100.00;99332.22;10103734;28;20525;-71
2021/11/28 04:10:08;;;;;;;22.58;13.57;;;;;;;2.33;100.00;99333.22;10102373;28;20335;-69
2021/11/28 04:15:05;;;;;;;23.65;14.50;;;;;;;2.23;100.00;99335.00;10100260;28;20062;-72
2021/11/28 04:20:04;;;;;;;21.27;12.82;;;;;;;2.24;100.00;99335.78;10091428;28;20545;-72
2021/11/28 04:25:02;;;;;;;28.23;17.15;;;;;;;2.28;100.00;99332.22;10099428;28;20054;-71
2021/11/28 04:29:58;;;;;;;25.40;15.68;;;;;;;2.36;100.00;99328.00;10099853;28;20869;-71
2021/11/28 04:34:55;;;;;;;22.77;14.13;;;;;;;2.34;100.00;99334.81;10102239;28;20137;-71
2021/11/28 04:39:51;;;;;;;23.25;14.68;;;;;;;2.29;100.00;99335.69;10097757;28;20568;-70
2021/11/28 04:44:48;;;;;;;21.80;12.52;;;;;;;2.25;100.00;99338.19;10100296;28;20078;-72
2021/11/28 04:49:46;;;;;;;19.42;12.30;;;;;;;2.33;100.00;99330.53;10094606;28;20062;-72
2021/11/28 04:54:43;;;;;;;21.70;13.77;;;;;;;2.35;100.00;99336.44;10105111;28;20074;-71
2021/11/28 04:59:39;;;;;;;19.52;11.77;;;;;;;2.28;100.00;99343.00;10103323;28;20134;-71
2021/11/28 05:04:36;;;;;;;23.27;14.25;;;;;;;2.25;100.00;99350.88;10101467;28;20133;-71
2021/11/28 05:09:32;;;;;;;23.52;14.95;;;;;;;2.13;100.00;99354.03;10097687;28;20042;-72
2021/11/28 05:14:29;;;;;;;23.52;13.65;;;;;;;2.08;100.00;99359.50;10106532;28;20050;-72
2021/11/28 05:19:25;;;;;;;25.00;16.42;;;;;;;2.08;100.00;99362.22;10113510;28;20090;-72
2021/11/28 05:24:22;;;;;;;24.83;14.90;;;;;;;2.15;100.00;99359.94;10125170;28;20459;-73
2021/11/28 05:29:18;;;;;;;22.75;14.63;;;;;;;2.26;100.00;99361.38;10135802;28;20042;-73
2021/11/28 05:34:15;;;;;;;23.83;14.75;;;;;;;2.28;100.00;99359.19;10115142;28;20050;-72
2021/11/28 05:39:11;;;;;;;26.42;16.90;;;;;;;2.20;100.00;99357.13;10118819;28;20051;-72
2021/11/28 05:44:09;;;;;;;28.95;16.85;;;;;;;2.14;100.00;99366.44;10106000;28;20113;-70
2021/11/28 05:49:06;;;;;;;28.30;17.10;;;;;;;2.12;100.00;99370.53;10103391;28;20070;-70
2021/11/28 05:54:02;;;;;;;26.70;16.55;;;;;;;2.13;100.00;99372.91;10108963;28;20647;-72
2021/11/28 05:58:59;;;;;;;29.23;18.00;;;;;;;2.19;100.00;99371.72;10111918;28;20493;-72
2021/11/28 06:03:56;;;;;;;28.63;18.63;;;;;;;2.20;100.00;99372.53;10108529;28;20121;-70
2021/11/28 06:08:53;;;;;;;24.40;16.02;;;;;;;2.25;100.00;99375.97;10100059;28;20101;-71
2021/11/28 06:13:49;;;;;;;25.73;16.60;;;;;;;2.24;100.00;99374.34;10108602;28;20423;-71
2021/11/28 06:18:46;;;;;;;25.63;16.38;;;;;;;2.21;100.00;99364.16;10102390;28;20470;-71
2021/11/28 06:23:42;;;;;;;27.67;17.88;;;;;;;2.24;100.00;99377.03;10099870;28;20046;-69
2021/11/28 06:28:39;;;;;;;25.92;16.92;;;;;;;2.29;100.00;99376.16;10106640;28;20039;-68
2021/11/28 06:33:35;;;;;;;27.75;17.55;;;;;;;2.27;100.00;99381.84;10107883;28;20175;-71
2021/11/28 06:38:34;;;;;;;25.20;15.90;;;;;;;2.21;100.00;99369.53;10108794;28;20038;-71
2021/11/28 06:43:30;;;;;;;25.52;15.85;;;;;;;2.23;100.00;99372.75;10098500;28;20047;-72
2021/11/28 06:48:27;;;;;;;26.45;17.55;;;;;;;2.28;100.00;99375.34;10101056;28;20059;-72
2021/11/28 06:53:23;;;;;;;25.13;16.88;;;;;;;2.11;100.00;99380.47;10095796;28;20097;-70
2021/11/28 06:58:20;;;;;;;27.52;17.02;;;;;;;2.16;100.00;99388.50;10118861;28;20047;-71
2021/11/28 07:03:16;;;;;;;26.88;17.02;;;;;;;2.21;100.00;99391.13;10095759;28;20517;-71
2021/11/28 07:08:13;;;;;;;25.75;17.15;;;;;;;2.38;100.00;99405.97;10085734;28;20590;-72
2021/11/28 07:13:09;;;;;;;24.75;16.10;;;;;;;2.26;100.00;99414.50;10100990;28;20082;-73
2021/11/28 07:18:06;;;;;;;25.23;16.25;;;;;;;2.29;100.00;99403.91;10087529;28;20071;-71
2021/11/28 07:23:03;;;;;;;23.90;15.70;;;;;;;2.40;100.00;99419.94;10077685;28;20047;-71
2021/11/28 07:28:01;;;;;;;25.30;17.13;;;;;;;2.41;100.00;99424.25;10077966;28;20396;-71
2021/11/28 07:32:58;;;;;;;24.60;16.00;;;;;;;2.45;100.00;99422.56;10080384;28;20074;-73
2021/11/28 07:37:55;;;;;;;23.33;16.00;;;;;;;2.51;100.00;99422.19;10080798;28;20070;-71
2021/11/28 07:42:51;;;;;;;26.10;17.25;;;;;;;2.61;100.00;99421.19;10075577;28;20504;-71
2021/11/28 07:47:48;;;;;;;25.27;17.25;;;;;;;2.62;100.00;99428.22;10076952;28;20081;-73
2021/11/28 07:52:45;;;;;;;25.33;18.15;;;;;;;2.62;100.00;99422.81;10085587;28;20047;-72
2021/11/28 07:57:41;;;;;;;22.35;16.70;;;;;;;2.78;100.00;99433.34;10109505;28;20524;-74
2021/11/28 08:02:38;;;;;;;28.45;18.65;;;;;;;2.80;100.00;99433.84;10083290;28;20078;-69
2021/11/28 08:07:35;;;;;;;26.40;17.45;;;;;;;2.81;100.00;99440.81;10084630;28;20040;-70
2021/11/28 08:12:32;;;;;;;27.90;17.80;;;;;;;2.88;100.00;99452.06;10084586;28;20408;-71
2021/11/28 08:17:31;;;;;;;28.40;18.55;;;;;;;2.84;100.00;99456.44;10077919;28;20058;-72
2021/11/28 08:22:28;;;;;;;27.77;18.95;;;;;;;2.82;100.00;99453.25;10075107;28;20058;-69
2021/11/28 08:27:24;;;;;;;28.70;19.65;;;;;;;2.91;100.00;99456.88;10063633;28;20078;-67
2021/11/28 08:32:21;;;;;;;29.08;19.05;;;;;;;2.93;100.00;99465.47;10064096;28;20067;-71
2021/11/28 08:37:18;;;;;;;28.50;18.45;;;;;;;3.00;100.00;99465.88;10070717;28;20444;-73
2021/11/28 08:42:14;;;;;;;27.50;18.13;;;;;;;3.05;100.00;99479.28;10063425;28;20063;-70
2021/11/28 08:47:11;;;;;;;29.45;19.70;;;;;;;3.13;100.00;99481.31;10076896;28;20051;-71
2021/11/28 08:52:07;;;;;;;26.85;18.75;;;;;;;3.16;100.00;99475.31;10083653;28;20050;-67
2021/11/28 08:57:04;;;;;;;26.92;17.85;;;;;;;3.28;100.00;99477.50;10099817;28;20095;-68
2021/11/28 09:02:01;;;;;;;25.40;16.90;;;;;;;3.31;100.00;99466.09;10090112;28;20122;-71
2021/11/28 09:06:58;;;;;;;25.20;17.92;;;;;;;3.19;100.00;99468.50;10087839;28;20098;-70
2021/11/28 09:11:55;;;;;;;24.08;15.57;;;;;;;3.16;100.00;99469.91;10085107;28;20129;-68
2021/11/28 09:16:51;;;;;;;25.63;17.15;;;;;;;3.09;100.00;99469.50;10092847;28;20038;-70
2021/11/28 09:21:49;;;;;;;24.95;17.33;;;;;;;3.12;100.00;99474.28;10103460;28;20051;-70
2021/11/28 09:26:45;;;;;;;22.73;15.52;;;;;;;3.05;100.00;99479.28;10104960;28;20050;-69
2021/11/28 09:31:42;;;;;;;22.52;15.25;;;;;;;3.10;100.00;99481.09;10075167;28;20051;-69
2021/11/28 09:36:39;;;;;;;24.73;16.02;;;;;;;3.13;100.00;99480.47;10075067;28;20072;-66
2021/11/28 09:41:37;;;;;;;24.55;17.10;;;;;;;3.14;100.00;99477.50;10066361;28;20150;-70
2021/11/28 09:46:34;;;;;;;25.73;17.08;;;;;;;3.20;100.00;99474.69;10072632;28;20047;-67
2021/11/28 09:51:32;;;;;;;23.80;16.55;;;;;;;3.17;100.00;99471.47;10069828;28;20058;-67
2021/11/28 09:56:33;;;;;;;23.80;15.90;;;;;;;3.31;100.00;99470.69;10076584;28;20554;-67
2021/11/28 10:01:37;;;;;;;22.30;15.60;;;;;;;3.32;100.00;99467.72;10072697;28;20047;-68
2021/11/28 10:06:35;;;;;;;22.25;14.48;;;;;;;3.33;100.00;99460.41;10077744;28;20512;-68
2021/11/28 10:11:40;;;;;;;20.17;14.38;;;;;;;3.39;100.00;99461.91;10086746;28;20150;-69
2021/11/28 10:16:39;;;;;;;17.85;12.63;;;;;;;3.28;100.00;99460.50;10096962;28;20046;-68
2021/11/28 10:21:36;;;;;;;18.98;12.85;;;;;;;3.35;100.00;99460.91;10094774;28;20044;-69
2021/11/28 10:26:38;;;;;;;332.15;168.40;;;;;;;3.44;100.00;99459.09;10088447;28;20057;-67
2021/11/28 10:31:55;;;;;;;20.98;15.43;;;;;;;3.44;100.00;99459.09;10092664;28;20125;-68
2021/11/28 10:37:06;;;;;;;21.00;14.63;;;;;;;3.59;100.00;99445.25;10096053;28;20067;-66
2021/11/28 10:42:03;;;;;;;20.10;13.98;;;;;;;3.73;100.00;99444.44;10083831;28;21421;-66
2021/11/28 10:47:12;;;;;;;20.52;14.55;;;;;;;3.75;100.00;99447.66;10087357;28;20038;-65
2021/11/28 10:52:12;;;;;;;21.83;15.63;;;;;;;3.77;100.00;99448.16;10077982;28;20077;-68
2021/11/28 10:57:10;;;;;;;22.15;15.20;;;;;;;3.73;100.00;99449.84;10081778;28;20184;-68
2021/11/28 11:02:31;;;;;;;25.25;18.27;;;;;;;3.64;100.00;99457.06;10081249;28;20039;-67
2021/11/28 11:07:41;;;;;;;25.77;16.05;;;;;;;3.68;100.00;99458.06;10091822;28;20094;-66
2021/11/28 11:12:42;;;;;;;24.83;17.30;;;;;;;3.82;100.00;99463.47;10096369;28;20050;-66
2021/11/28 11:17:55;;;;;;;24.90;15.98;;;;;;;3.71;100.00;99463.69;10090966;28;20438;-69
2021/11/28 11:22:52;;;;;;;21.63;14.45;;;;;;;3.84;100.00;99464.75;10075656;28;20154;-66
2021/11/28 11:27:49;;;;;;;25.92;17.27;;;;;;;3.78;100.00;99457.84;10076458;28;20050;-70
2021/11/28 11:32:50;;;;;;;23.23;16.98;;;;;;;3.87;100.00;99464.13;10093106;28;20411;-68
2021/11/28 11:37:48;;;;;;;22.83;15.90;;;;;;;3.89;100.00;99463.84;10091634;28;20058;-67
2021/11/28 11:42:47;;;;;;;24.08;17.58;;;;;;;3.97;100.00;99466.63;10090676;28;20525;-68
2021/11/28 11:47:45;;;;;;;24.98;18.27;;;;;;;3.99;100.00;99464.44;10097167;28;20042;-68
2021/11/28 11:52:43;;;;;;;24.33;17.40;;;;;;;4.15;100.00;99461.38;10088021;28;20660;-68
2021/11/28 11:58:16;;;;;;;24.15;17.10;;;;;;;4.21;100.00;99466.38;10093101;28;20042;-69
2021/11/28 12:03:20;;;;;;;20.55;14.80;;;;;;;4.34;100.00;99467.44;10084378;28;20068;-66
2021/11/28 12:08:22;;;;;;;24.35;17.70;;;;;;;4.43;100.00;99470.19;10072897;28;20047;-65
2021/11/28 12:13:24;;;;;;;21.17;15.82;;;;;;;4.38;100.00;99471.09;10088679;28;20065;-68
2021/11/28 12:18:33;;;;;;;21.30;15.65;;;;;;;4.42;100.00;99463.97;10084031;28;20308;-68
2021/11/28 12:23:51;;;;;;;21.00;14.73;;;;;;;4.40;100.00;99471.59;10111071;28;20046;-66
2021/11/28 12:28:48;;;;;;;15.57;10.90;;;;;;;4.28;100.00;99471.34;10090176;28;20510;-64
2021/11/28 12:33:54;;;;;;;14.55;10.15;;;;;;;4.28;100.00;99459.72;10078579;28;20049;-69
2021/11/28 12:38:51;;;;;;;15.30;10.10;;;;;;;4.14;100.00;99465.19;10091114;28;20137;-68
2021/11/28 12:44:06;;;;;;;14.05;9.50;;;;;;;4.11;100.00;99473.94;10090744;28;20051;-68
2021/11/28 12:49:24;;;;;;;13.90;10.23;;;;;;;3.94;100.00;99467.22;10066680;28;20089;-68
2021/11/28 12:54:36;;;;;;;17.35;11.23;;;;;;;3.96;100.00;99470.44;10067018;28;20042;-67
2021/11/28 12:59:35;;;;;;;15.90;10.63;;;;;;;3.83;100.00;99471.28;10062458;28;20142;-68
2021/11/28 13:04:40;;;;;;;16.17;11.30;;;;;;;3.93;100.00;99479.16;10068502;28;20058;-69
2021/11/28 13:09:38;;;;;;;17.77;12.65;;;;;;;3.90;100.00;99471.66;10061775;28;20059;-71
2021/11/28 13:14:35;;;;;;;17.90;12.40;;;;;;;4.00;100.00;99482.25;10084736;28;20047;-67
2021/11/28 13:19:32;;;;;;;19.05;14.02;;;;;;;3.99;100.00;99480.66;10077093;28;20046;-68
2021/11/28 13:24:29;;;;;;;23.73;14.88;;;;;;;3.96;100.00;99486.66;10069717;28;20043;-67
2021/11/28 13:29:26;;;;;;;21.02;13.75;;;;;;;3.92;100.00;99485.69;10071086;28;20047;-68
2021/11/28 13:34:32;;;;;;;20.10;13.93;;;;;;;3.85;100.00;99495.28;10072946;28;20047;-69
2021/11/28 13:39:30;;;;;;;23.23;15.30;;;;;;;3.81;100.00;99495.13;10098714;28;20051;-69
2021/11/28 13:44:29;;;;;;;19.13;12.52;;;;;;;3.80;100.00;99488.09;10084210;28;20045;-68
2021/11/28 13:49:31;;;;;;;18.73;13.30;;;;;;;3.83;100.00;99484.81;10075801;28;20090;-68
2021/11/28 13:54:39;;;;;;;18.83;12.27;;;;;;;3.77;100.00;99488.69;10085200;28;20049;-68
2021/11/28 13:59:42;;;;;;;15.77;12.02;;;;;;;3.74;100.00;99486.63;10089622;28;20051;-68
2021/11/28 14:04:40;;;;;;;;;;;;;;;3.55;100.00;99492.94;10085816;28;20551;-68
2021/11/28 14:09:41;;;;;;;23.02;12.13;;;;;;;3.33;100.00;99495.53;10092409;28;20381;-68
2021/11/28 14:14:46;;;;;;;17.27;11.95;;;;;;;3.19;100.00;99494.72;10095387;28;20055;-68
2021/11/28 14:19:43;;;;;;;22.17;15.18;;;;;;;3.27;100.00;99502.09;10086091;28;20098;-67
2021/11/28 14:24:41;;;;;;;22.65;14.70;;;;;;;3.28;100.00;99503.72;10096386;28;20105;-68
2021/11/28 14:29:38;;;;;;;25.13;15.65;;;;;;;3.08;100.00;99494.88;10097177;28;20069;-68
2021/11/28 14:34:35;;;;;;;24.55;15.85;;;;;;;3.09;100.00;99507.31;10092262;28;20047;-67
2021/11/28 14:39:37;;;;;;;24.15;15.43;;;;;;;3.05;100.00;99514.38;10098350;28;20043;-67
2021/11/28 14:44:43;;;;;;;25.05;15.90;;;;;;;3.03;100.00;99516.59;10083201;28;20046;-68
2021/11/28 14:49:42;;;;;;;22.92;15.52;;;;;;;2.98;100.00;99524.78;10103970;28;20115;-67
2021/11/28 14:54:43;;;;;;;24.15;16.20;;;;;;;2.96;100.00;99526.97;10077876;28;20055;-68
2021/11/28 14:59:42;;;;;;;22.58;15.20;;;;;;;2.88;100.00;99538.47;10094108;28;20043;-67
2021/11/28 15:04:44;;;;;;;23.27;14.98;;;;;;;2.80;100.00;99537.22;10094738;28;20506;-67
2021/11/28 15:09:48;;;;;;;24.55;15.75;;;;;;;2.72;100.00;99538.69;10090327;28;20039;-68
2021/11/28 15:14:45;;;;;;;22.52;14.30;;;;;;;2.65;100.00;99532.88;10091947;28;20047;-65
2021/11/28 15:19:41;;;;;;;21.67;14.50;;;;;;;2.49;100.00;99535.00;10080528;28;20051;-68
2021/11/28 15:24:38;;;;;;;20.98;14.57;;;;;;;2.43;100.00;99543.47;10099268;28;20042;-67
2021/11/28 15:29:38;;;;;;;21.25;14.40;;;;;;;2.36;100.00;99548.41;10093544;28;20042;-67
2021/11/28 15:34:34;;;;;;;20.92;14.90;;;;;;;2.24;100.00;99563.13;10097394;28;20050;-67
2021/11/28 15:39:31;;;;;;;21.23;14.27;;;;;;;2.20;100.00;99561.31;10093398;28;20503;-68
2021/11/28 15:44:29;;;;;;;22.67;15.00;;;;;;;2.19;100.00;99565.91;10091599;28;20483;-67
2021/11/28 15:49:25;;;;;;;24.65;15.07;;;;;;;2.12;100.00;99562.75;10101730;28;20138;-68
2021/11/28 15:54:23;;;;;;;22.80;14.35;;;;;;;2.15;100.00;99559.47;10103577;28;20050;-68
2021/11/28 15:59:19;;;;;;;22.73;14.25;;;;;;;2.18;100.00;99564.31;10082469;28;20055;-68
2021/11/28 16:04:16;;;;;;;23.30;14.73;;;;;;;2.22;100.00;99564.53;10064559;28;20058;-68
2021/11/28 16:09:13;;;;;;;22.02;14.98;;;;;;;2.33;100.00;99573.28;10078197;28;20043;-67
2021/11/28 16:14:11;;;;;;;23.13;15.50;;;;;;;2.40;100.00;99555.63;10090641;28;20541;-67
2021/11/28 16:19:08;;;;;;;21.50;14.95;;;;;;;2.34;100.00;99564.88;10087550;28;20050;-67
2021/11/28 16:24:05;;;;;;;23.05;14.80;;;;;;;2.38;100.00;99568.59;10091386;28;20519;-68
2021/11/28 16:29:03;;;;;;;25.00;16.30;;;;;;;2.34;100.00;99558.69;10076060;28;20047;-68
2021/11/28 16:33:59;;;;;;;25.02;15.65;;;;;;;2.25;100.00;99575.53;10093901;28;20065;-68
2021/11/28 16:38:57;;;;;;;28.60;17.75;;;;;;;2.17;100.00;99572.69;10089541;28;20039;-67
2021/11/28 16:43:54;;;;;;;27.40;17.80;;;;;;;2.11;100.00;99580.03;10082040;28;20146;-68
2021/11/28 16:48:55;;;;;;;26.67;17.10;;;;;;;2.16;100.00;99590.75;10074062;28;20068;-69
2021/11/28 16:53:51;;;;;;;23.95;16.23;;;;;;;2.16;100.00;99581.84;10095193;28;20066;-69
2021/11/28 16:58:48;;;;;;;27.30;18.27;;;;;;;2.03;100.00;99581.47;10085534;28;20622;-68
2021/11/28 17:03:56;;;;;;;28.17;18.00;;;;;;;1.97;100.00;99581.81;10092919;28;20043;-68
2021/11/28 17:08:56;;;;;;;27.35;16.23;;;;;;;1.88;100.00;99582.47;10092944;28;20092;-68
2021/11/28 17:13:53;;;;;;;24.77;16.77;;;;;;;1.85;100.00;99599.19;10097930;28;20053;-68
2021/11/28 17:18:50;;;;;;;32.55;18.48;;;;;;;1.80;100.00;99601.16;10099618;28;20051;-68
2021/11/28 17:23:46;;;;;;;30.77;18.55;;;;;;;1.73;100.00;99596.09;10107220;28;20046;-67
2021/11/28 17:28:43;;;;;;;30.50;18.40;;;;;;;1.70;100.00;99602.09;10103252;28;20086;-67
2021/11/28 17:33:39;;;;;;;30.02;18.05;;;;;;;1.64;100.00;99614.00;10093860;28;20047;-67
2021/11/28 17:38:36;;;;;;;30.10;18.40;;;;;;;1.63;100.00;99612.41;10105725;28;20043;-67
2021/11/28 17:43:33;;;;;;;31.60;18.83;;;;;;;1.68;100.00;99620.44;10085034;28;20043;-67
2021/11/28 17:48:30;;;;;;;31.95;18.90;;;;;;;1.71;100.00;99619.84;10094622;28;20055;-67
2021/11/28 17:53:26;;;;;;;35.33;19.63;;;;;;;1.72;100.00;99626.84;10082553;28;20141;-67
2021/11/28 17:58:23;;;;;;;33.85;20.23;;;;;;;1.85;100.00;99628.84;10095478;28;20047;-68
2021/11/28 18:03:20;;;;;;;34.92;21.20;;;;;;;1.96;100.00;99637.63;10108944;28;20058;-67
2021/11/28 18:08:16;;;;;;;40.78;22.58;;;;;;;1.98;100.00;99646.25;10095481;28;20054;-68
2021/11/28 18:13:13;;;;;;;41.60;24.73;;;;;;;2.04;100.00;99646.97;10093588;28;20522;-67
2021/11/28 18:18:10;;;;;;;41.65;25.05;;;;;;;1.98;100.00;99656.22;10084560;28;20051;-68
2021/11/28 18:23:07;;;;;;;41.33;25.13;;;;;;;2.12;100.00;99661.75;10080208;28;20051;-69
2021/11/28 18:28:04;;;;;;;42.05;24.50;;;;;;;2.12;100.00;99670.63;10081743;28;20053;-69
2021/11/28 18:33:02;;;;;;;45.00;25.83;;;;;;;2.14;100.00;99676.53;10080297;28;20142;-68
2021/11/28 18:37:59;;;;;;;47.30;25.02;;;;;;;2.11;100.00;99677.09;10088480;28;20628;-68
2021/11/28 18:42:57;;;;;;;38.92;22.65;;;;;;;2.09;100.00;99674.72;10088068;28;20057;-69
2021/11/28 18:47:54;;;;;;;41.38;22.17;;;;;;;2.10;100.00;99672.81;10075466;28;20042;-68
2021/11/28 18:52:53;;;;;;;38.67;22.27;;;;;;;1.98;100.00;99677.81;10088676;28;20070;-68
2021/11/28 18:57:54;;;;;;;36.08;20.30;;;;;;;2.06;100.00;99674.47;10083221;28;20529;-68
2021/11/28 19:02:51;;;;;;;38.90;22.15;;;;;;;2.09;100.00;99676.59;10080555;28;20575;-68
2021/11/28 19:07:50;;;;;;;39.38;21.48;;;;;;;2.17;100.00;99683.25;10080778;28;20054;-72
2021/11/28 19:12:49;;;;;;;37.05;20.63;;;;;;;2.23;100.00;99696.41;10090901;28;20046;-69
2021/11/28 19:17:45;;;;;;;40.95;21.75;;;;;;;2.07;100.00;99694.97;10074204;28;20058;-68
2021/11/28 19:22:43;;;;;;;38.10;21.67;;;;;;;2.09;100.00;99695.47;10095824;28;20054;-68
2021/11/28 19:27:40;;;;;;;38.83;20.63;;;;;;;2.06;100.00;99706.81;10100246;28;20043;-68
2021/11/28 19:32:57;;;;;;;43.92;23.65;;;;;;;1.98;100.00;99700.16;10095997;28;20106;-68
2021/11/28 19:37:54;;;;;;;41.20;21.55;;;;;;;1.99;100.00;99700.97;10101274;28;20050;-68
2021/11/28 19:42:50;;;;;;;37.35;21.25;;;;;;;1.98;100.00;99704.75;10095360;28;20082;-68
2021/11/28 19:47:47;;;;;;;38.78;21.05;;;;;;;2.01;100.00;99694.19;10084523;28;20668;-68
2021/11/28 19:52:43;;;;;;;39.65;22.17;;;;;;;2.07;100.00;99703.06;10095788;28;20498;-68
2021/11/28 19:57:41;;;;;;;43.05;22.33;;;;;;;2.08;100.00;99700.03;10092251;28;20057;-70
2021/11/28 20:02:37;;;;;;;47.00;22.75;;;;;;;2.15;100.00;99705.09;10092464;28;20085;-68
2021/11/28 20:07:34;;;;;;;44.75;22.98;;;;;;;2.18;100.00;99699.16;10084054;28;20110;-68
2021/11/28 20:12:31;;;;;;;44.08;22.95;;;;;;;2.15;100.00;99705.09;10090849;28;20055;-68
2021/11/28 20:17:28;;;;;;;47.67;23.67;;;;;;;2.15;100.00;99705.09;10085965;28;20173;-68
2021/11/28 20:22:24;;;;;;;38.38;20.75;;;;;;;2.18;100.00;99712.63;10091383;28;20042;-68
2021/11/28 20:27:21;;;;;;;49.22;22.35;;;;;;;2.18;100.00;99715.34;10095461;28;20121;-68
2021/11/28 20:32:17;;;;;;;41.45;22.27;;;;;;;2.08;100.00;99710.03;10105560;28;20078;-68
2021/11/28 20:37:14;;;;;;;47.30;23.58;;;;;;;2.14;100.00;99718.91;10092525;28;20081;-68
2021/11/28 20:42:11;;;;;;;44.65;22.70;;;;;;;1.95;100.00;99711.53;10098142;28;20058;-68
2021/11/28 20:47:27;;;;;;;43.65;23.15;;;;;;;2.18;100.00;99709.94;10089144;28;20537;-66
2021/11/28 20:52:24;;;;;;;49.10;23.27;;;;;;;2.17;100.00;99713.72;10085980;28;20071;-70
2021/11/28 20:57:21;;;;;;;50.20;24.23;;;;;;;2.15;100.00;99723.19;10082846;28;20599;-68
2021/11/28 21:02:37;;;;;;;53.75;23.67;;;;;;;2.13;100.00;99718.06;10066001;28;20062;-68
2021/11/28 21:07:38;;;;;;;50.58;24.15;;;;;;;2.03;100.00;99723.56;10083874;28;20050;-69
2021/11/28 21:12:35;;;;;;;47.63;23.70;;;;;;;2.09;100.00;99727.84;10097358;28;20100;-69
2021/11/28 21:17:32;;;;;;;53.75;26.80;;;;;;;2.07;100.00;99722.72;10093259;28;20109;-70
2021/11/28 21:22:30;;;;;;;57.42;25.60;;;;;;;2.02;100.00;99727.34;10089928;28;20187;-70
2021/11/28 21:27:26;;;;;;;53.85;25.17;;;;;;;1.98;100.00;99727.13;10085067;28;20732;-68
2021/11/28 21:32:23;;;;;;;51.30;22.55;;;;;;;2.01;100.00;99725.75;10085012;28;20419;-67
2021/11/28 21:37:19;;;;;;;49.17;23.92;;;;;;;2.01;100.00;99725.75;10094725;28;20086;-67
2021/11/28 21:42:16;;;;;;;56.22;24.88;;;;;;;1.99;100.00;99727.94;10088379;28;20086;-68
2021/11/28 21:47:12;;;;;;;75.35;26.60;;;;;;;1.99;100.00;99727.94;10086750;28;20109;-70
2021/11/28 21:52:09;;;;;;;55.38;24.80;;;;;;;1.95;100.00;99737.66;10088647;28;20043;-70
2021/11/28 21:57:10;;;;;;;55.95;24.70;;;;;;;2.04;100.00;99741.34;10094903;28;20134;-69
2021/11/28 22:02:06;;;;;;;54.25;25.75;;;;;;;2.10;100.00;99746.41;10098401;28;20153;-70
2021/11/28 22:07:03;;;;;;;60.53;26.98;;;;;;;2.10;100.00;99751.00;10101125;28;20505;-70
2021/11/28 22:12:00;;;;;;;59.95;24.17;;;;;;;2.16;100.00;99757.13;10086583;28;20703;-71
2021/11/28 22:16:56;;;;;;;72.95;23.98;;;;;;;2.22;100.00;99759.50;10089435;28;20161;-70
2021/11/28 22:21:53;;;;;;;51.63;20.30;;;;;;;2.16;100.00;99760.66;10099880;28;20107;-69
2021/11/28 22:26:52;;;;;;;80.68;20.08;;;;;;;2.04;100.00;99757.53;10106791;28;20159;-69
2021/11/28 22:31:49;;;;;;;50.13;18.77;;;;;;;2.01;100.00;99763.50;10105848;28;20134;-70
2021/11/28 22:36:45;;;;;;;71.85;19.38;;;;;;;1.96;100.00;99766.25;10106393;28;20047;-70
2021/11/28 22:41:42;;;;;;;41.08;18.40;;;;;;;1.99;100.00;99776.44;10102784;28;20486;-71
2021/11/28 22:46:39;;;;;;;58.50;18.58;;;;;;;1.92;100.00;99781.38;10108310;28;20038;-69